FAPE

Verwoerd International Airport

Airport
ICAO code
FAPE
IATA Code
PLZ
Summary
ICAO Region
AFI
ICAO Territory
Location

, Eastern Cape

Serving
Port Elizabeth
Elevation
226 ft
Coordinates
33° 59' 6" S , 25° 37' 2" E
Metar
FAPE 191900Z 28007KT CAVOK 13/09 Q1024 NOSIG

Runways

Designator Length Width Surface Rops
10/28 1178 18 GRS No/No
17/35 1677 46 ASP Yes/Yes
8/26 1980 46 ASP Yes/Yes

SKYbrary Partners:

Safety knowledge contributed by: